createdAt,value
2018-05-01T00:00:10.218Z,63.07
2018-05-01T00:01:10.413Z,63.35
2018-05-01T00:02:10.608Z,63.26
2018-05-01T00:05:07.328Z,63.45
2018-05-01T00:05:43.974Z,63.45
2018-05-01T00:06:44.136Z,63.35
2018-05-01T00:07:44.318Z,62.78
2018-05-01T00:08:44.625Z,62.78
2018-05-01T00:09:44.660Z,63.07
2018-05-01T00:10:44.826Z,62.97
2018-05-01T00:11:44.995Z,62.87
2018-05-01T00:12:45.150Z,63.26
2018-05-01T00:13:45.339Z,63.16
2018-05-01T00:14:45.498Z,63.35
2018-05-01T00:15:45.727Z,63.64
2018-05-01T00:16:45.854Z,63.42
2018-05-01T00:17:46.002Z,63.07
2018-05-01T00:18:46.170Z,62.97
2018-05-01T00:19:46.334Z,63.16
2018-05-01T00:20:46.500Z,63.26
2018-05-01T00:21:46.661Z,63.07
2018-05-01T00:22:46.839Z,63.45
2018-05-01T00:23:47.052Z,63.54
2018-05-01T00:24:47.381Z,63.64
2018-05-01T00:25:47.479Z,64.31
2018-05-01T00:26:47.518Z,64.12
2018-05-01T00:27:47.684Z,64.02
2018-05-01T00:28:47.859Z,63.80
2018-05-01T00:29:48.017Z,64.50
2018-05-01T00:30:48.180Z,64.40
2018-05-01T00:31:48.342Z,64.02
2018-05-01T00:32:48.510Z,64.40
2018-05-01T00:33:48.672Z,64.12
2018-05-01T00:34:48.838Z,64.12
2018-05-01T00:35:49.004Z,64.02
2018-05-01T00:36:49.165Z,64.50
2018-05-01T00:37:49.328Z,64.22
2018-05-01T00:38:49.500Z,63.93
2018-05-01T00:39:49.662Z,64.22
2018-05-01T00:40:49.824Z,64.59
2018-05-01T00:41:50.000Z,64.18
2018-05-01T00:42:50.148Z,64.59
2018-05-01T00:43:50.312Z,65.71
2018-05-01T00:44:50.477Z,65.52
2018-05-01T00:45:50.637Z,65.71
2018-05-01T00:46:50.808Z,65.14
2018-05-01T00:47:50.973Z,64.94
2018-05-01T00:48:51.146Z,65.33
2018-05-01T00:49:51.318Z,64.98
2018-05-01T00:50:51.490Z,64.94
2018-05-01T00:51:51.652Z,64.56
2018-05-01T00:52:51.829Z,65.33
2018-05-01T00:53:51.986Z,65.80
2018-05-01T00:54:52.149Z,65.36
2018-05-01T00:55:52.310Z,65.45
2018-05-01T00:56:52.481Z,65.14
2018-05-01T00:57:52.649Z,65.33
2018-05-01T00:58:52.817Z,65.04
2018-05-01T00:59:52.985Z,64.75
2018-05-01T01:00:53.157Z,64.88
2018-05-01T01:01:53.320Z,64.65
2018-05-01T01:02:53.481Z,64.75
2018-05-01T01:03:53.647Z,64.09
2018-05-01T01:04:53.812Z,63.99
2018-05-01T01:05:53.973Z,64.65
2018-05-01T01:06:54.135Z,64.37
2018-05-01T01:07:54.301Z,63.70
2018-05-01T01:08:54.469Z,63.45
2018-05-01T01:09:54.626Z,63.51
2018-05-01T01:10:54.789Z,63.42
2018-05-01T01:11:54.954Z,63.42
2018-05-01T01:12:55.120Z,63.13
2018-05-01T01:13:55.279Z,63.23
2018-05-01T01:14:55.440Z,62.84
2018-05-01T01:15:55.604Z,62.75
2018-05-01T01:16:55.771Z,63.42
2018-05-01T01:17:55.949Z,63.42
2018-05-01T01:18:56.110Z,62.55
2018-05-01T01:19:56.277Z,63.23
2018-05-01T01:20:56.440Z,62.84
2018-05-01T01:21:56.608Z,62.94
2018-05-01T01:22:56.759Z,62.46
2018-05-01T01:23:56.940Z,62.94
2018-05-01T01:24:57.082Z,63.13
2018-05-01T01:25:57.252Z,63.57
2018-05-01T01:26:57.410Z,63.76
2018-05-01T01:27:57.566Z,64.34
2018-05-01T01:28:58.270Z,64.25
2018-05-01T01:29:57.958Z,63.29
2018-05-01T01:30:58.118Z,62.81
2018-05-01T01:31:58.284Z,62.71
2018-05-01T01:32:58.458Z,63.48
2018-05-01T01:33:58.619Z,62.91
2018-05-01T01:34:58.782Z,62.91
2018-05-01T01:35:58.946Z,62.02
2018-05-01T01:36:59.109Z,62.78
2018-05-01T01:37:59.276Z,63.45
2018-05-01T01:38:59.447Z,63.35
2018-05-01T01:39:59.607Z,62.78
2018-05-01T01:40:59.770Z,62.97
2018-05-01T01:41:59.930Z,61.92
2018-05-01T01:43:00.098Z,62.21
2018-05-01T01:44:00.261Z,61.44
2018-05-01T01:45:00.419Z,61.44
2018-05-01T01:46:00.588Z,61.25
2018-05-01T01:47:00.751Z,62.02
2018-05-01T01:48:00.916Z,61.54
2018-05-01T01:49:01.077Z,61.63
2018-05-01T01:50:01.244Z,61.16
2018-05-01T01:51:01.410Z,60.39
2018-05-01T01:52:01.570Z,61.16
2018-05-01T01:53:01.731Z,61.44
2018-05-01T01:54:01.899Z,61.22
2018-05-01T01:55:02.059Z,61.13
2018-05-01T01:56:02.220Z,61.60
2018-05-01T01:57:02.382Z,61.89
2018-05-01T01:58:02.542Z,61.70
2018-05-01T01:59:02.701Z,62.37
2018-05-01T02:00:02.871Z,61.89
2018-05-01T02:01:03.028Z,62.18
2018-05-01T02:02:03.196Z,61.99
2018-05-01T02:03:03.359Z,62.65
2018-05-01T02:04:03.515Z,63.23
2018-05-01T02:05:03.685Z,63.57
2018-05-01T02:06:03.846Z,64.15
2018-05-01T02:07:04.007Z,64.34
2018-05-01T02:08:04.170Z,63.86
2018-05-01T02:09:04.329Z,63.89
2018-05-01T02:10:04.494Z,63.80
2018-05-01T02:11:04.692Z,64.09
2018-05-01T02:12:04.823Z,64.28
2018-05-01T02:13:05.050Z,63.86
2018-05-01T02:14:05.146Z,63.86
2018-05-01T02:15:05.312Z,64.53
2018-05-01T02:16:05.476Z,64.62
2018-05-01T02:17:05.635Z,64.81
2018-05-01T02:18:05.794Z,64.62
2018-05-01T02:19:05.962Z,65.20
2018-05-01T02:20:06.126Z,65.29
2018-05-01T02:21:06.283Z,65.67
2018-05-01T02:22:06.444Z,66.34
2018-05-01T02:23:06.608Z,66.15
2018-05-01T02:24:06.776Z,66.15
2018-05-01T02:25:06.940Z,66.15
2018-05-01T02:26:07.102Z,65.86
2018-05-01T02:27:07.268Z,66.05
2018-05-01T02:28:07.425Z,65.39
2018-05-01T02:29:07.588Z,65.86
2018-05-01T02:30:07.747Z,66.15
2018-05-01T02:31:07.920Z,66.05
2018-05-01T02:32:08.076Z,66.24
2018-05-01T02:33:08.241Z,66.15
2018-05-01T02:34:08.398Z,66.72
2018-05-01T02:35:08.998Z,66.78
2018-05-01T02:36:09.183Z,66.82
2018-05-01T02:37:09.310Z,66.82
2018-05-01T02:38:09.467Z,67.48
2018-05-01T02:39:09.645Z,66.44
2018-05-01T02:40:09.818Z,66.05
2018-05-01T02:41:09.976Z,65.77
2018-05-01T02:42:10.169Z,66.24
2018-05-01T02:43:10.361Z,66.72
2018-05-01T02:44:10.148Z,66.24
2018-05-01T02:45:10.309Z,66.05
2018-05-01T02:46:10.471Z,66.34
2018-05-01T02:47:10.638Z,66.15
2018-05-01T02:48:10.795Z,65.86
2018-05-01T02:49:10.956Z,66.53
2018-05-01T02:50:11.121Z,66.15
2018-05-01T02:51:11.287Z,66.34
2018-05-01T02:52:11.443Z,66.15
2018-05-01T02:53:11.603Z,66.15
2018-05-01T02:54:11.768Z,65.70
2018-05-01T02:55:11.926Z,65.70
2018-05-01T02:56:12.092Z,66.24
2018-05-01T02:57:12.257Z,66.34
2018-05-01T02:58:12.415Z,66.34
2018-05-01T02:59:12.589Z,66.47
2018-05-01T03:00:12.751Z,66.44
2018-05-01T03:01:12.914Z,66.34
2018-05-01T03:02:13.079Z,66.53
2018-05-01T03:03:13.237Z,67.20
2018-05-01T03:04:13.398Z,67.10
2018-05-01T03:05:13.561Z,67.29
2018-05-01T03:06:13.728Z,67.39
2018-05-01T03:07:13.887Z,67.29
2018-05-01T03:08:14.056Z,66.82
2018-05-01T03:09:14.230Z,67.86
2018-05-01T03:10:14.405Z,67.86
2018-05-01T03:11:14.566Z,68.53
2018-05-01T03:12:14.728Z,68.53
2018-05-01T03:13:14.893Z,68.82
2018-05-01T03:14:15.052Z,68.53
2018-05-01T03:15:15.215Z,68.44
2018-05-01T03:16:15.379Z,68.72
2018-05-01T03:17:15.548Z,68.53
2018-05-01T03:18:15.716Z,68.53
2018-05-01T03:19:15.876Z,68.44
2018-05-01T03:20:16.041Z,68.24
2018-05-01T03:21:16.205Z,68.34
2018-05-01T03:22:16.376Z,68.24
2018-05-01T03:23:16.540Z,68.05
2018-05-01T03:24:16.698Z,67.68
2018-05-01T03:25:16.899Z,67.96
2018-05-01T03:26:17.026Z,69.01
2018-05-01T03:27:17.193Z,69.07
2018-05-01T03:28:17.359Z,68.63
2018-05-01T03:29:17.520Z,69.68
2018-05-01T03:30:17.681Z,68.53
2018-05-01T03:31:17.850Z,68.53
2018-05-01T03:32:18.015Z,68.34
2018-05-01T03:33:18.179Z,68.34
2018-05-01T03:34:18.336Z,68.05
2018-05-01T03:35:18.497Z,68.24
2018-05-01T03:36:18.655Z,68.34
2018-05-01T03:37:18.817Z,68.44
2018-05-01T03:38:18.995Z,67.77
2018-05-01T03:39:19.237Z,67.52
2018-05-01T03:40:19.314Z,67.42
2018-05-01T03:41:19.483Z,67.48
2018-05-01T03:42:19.657Z,67.77
2018-05-01T03:43:19.816Z,67.80
2018-05-01T03:44:19.987Z,67.96
2018-05-01T03:45:20.146Z,67.20
2018-05-01T03:46:20.312Z,67.48
2018-05-01T03:47:20.476Z,67.96
2018-05-01T03:48:20.637Z,68.24
2018-05-01T03:49:20.800Z,68.15
2018-05-01T03:50:20.961Z,68.63
2018-05-01T03:51:21.121Z,68.18
2018-05-01T03:52:21.291Z,67.90
2018-05-01T03:53:21.459Z,67.71
2018-05-01T03:54:21.614Z,67.90
2018-05-01T03:55:21.783Z,67.71
2018-05-01T03:56:21.950Z,67.58
2018-05-01T03:57:22.109Z,68.53
2018-05-01T03:58:22.270Z,68.05
2018-05-01T03:59:22.433Z,68.24
2018-05-01T04:00:22.592Z,67.86
2018-05-01T04:01:22.758Z,67.90
2018-05-01T04:02:23.024Z,67.42
2018-05-01T04:03:23.085Z,67.33
2018-05-01T04:04:23.256Z,66.94
2018-05-01T04:05:23.418Z,67.04
2018-05-01T04:06:23.582Z,67.52
2018-05-01T04:07:23.743Z,67.58
2018-05-01T04:08:23.901Z,67.77
2018-05-01T04:09:24.066Z,68.05
2018-05-01T04:10:24.228Z,68.24
2018-05-01T04:11:24.392Z,67.86
2018-05-01T04:12:24.572Z,67.71
2018-05-01T04:13:24.741Z,67.23
2018-05-01T04:14:24.897Z,67.61
2018-05-01T04:15:25.057Z,67.20
2018-05-01T04:16:25.218Z,68.15
2018-05-01T04:17:25.381Z,68.53
2018-05-01T04:18:25.546Z,68.53
2018-05-01T04:19:25.712Z,68.18
2018-05-01T04:20:25.868Z,68.15
2018-05-01T04:21:26.034Z,68.63
2018-05-01T04:22:26.194Z,68.34
2018-05-01T04:23:26.354Z,68.09
2018-05-01T04:24:26.519Z,68.53
2018-05-01T04:25:26.771Z,68.53
2018-05-01T04:26:26.854Z,68.72
2018-05-01T04:27:27.016Z,68.91
2018-05-01T04:28:27.184Z,69.04
2018-05-01T04:29:27.347Z,68.63
2018-05-01T04:30:27.504Z,68.24
2018-05-01T04:31:27.677Z,68.34
2018-05-01T04:32:27.840Z,67.99
2018-05-01T04:33:27.998Z,67.90
2018-05-01T04:34:28.168Z,67.61
2018-05-01T04:35:28.325Z,67.96
2018-05-01T04:36:28.492Z,67.20
2018-05-01T04:37:28.651Z,67.96
2018-05-01T04:38:28.814Z,68.15
2018-05-01T04:39:28.983Z,67.96
2018-05-01T04:40:29.144Z,67.96
2018-05-01T04:41:29.311Z,68.34
2018-05-01T04:42:29.484Z,68.72
2018-05-01T04:43:29.641Z,69.20
2018-05-01T04:44:29.802Z,69.20
2018-05-01T04:45:29.967Z,69.01
2018-05-01T04:46:30.130Z,69.39
2018-05-01T04:47:30.292Z,69.01
2018-05-01T04:48:30.458Z,68.63
2018-05-01T04:49:30.623Z,69.01
2018-05-01T04:50:30.786Z,69.20
2018-05-01T04:51:30.947Z,68.44
2018-05-01T04:52:31.117Z,68.38
2018-05-01T04:53:31.276Z,68.57
2018-05-01T04:54:31.435Z,68.53
2018-05-01T04:55:31.600Z,68.53
2018-05-01T04:56:31.772Z,68.09
2018-05-01T04:57:31.936Z,68.05
2018-05-01T04:58:32.106Z,68.91
2018-05-01T04:59:32.259Z,69.96
2018-05-01T05:00:32.428Z,70.44
2018-05-01T05:01:32.601Z,71.77
2018-05-01T05:02:32.753Z,72.25
2018-05-01T05:03:32.917Z,71.30
2018-05-01T05:04:33.080Z,70.82
2018-05-01T05:05:33.242Z,71.20
2018-05-01T05:06:33.413Z,70.92
2018-05-01T05:07:33.574Z,70.25
2018-05-01T05:08:33.741Z,69.43
2018-05-01T05:09:33.916Z,69.33
2018-05-01T05:10:34.074Z,68.47
2018-05-01T05:11:34.233Z,67.90
2018-05-01T05:12:34.396Z,67.14
2018-05-01T05:13:34.556Z,67.23
2018-05-01T05:14:34.720Z,67.71
2018-05-01T05:15:34.879Z,67.90
2018-05-01T05:16:35.044Z,67.42
2018-05-01T05:17:35.204Z,67.04
2018-05-01T05:18:35.372Z,66.94
2018-05-01T05:19:35.534Z,67.04
2018-05-01T05:20:35.705Z,67.52
2018-05-01T05:21:35.875Z,67.71
2018-05-01T05:22:36.040Z,67.90
2018-05-01T05:23:36.204Z,67.52
2018-05-01T05:24:36.377Z,66.94
2018-05-01T05:25:36.532Z,67.23
2018-05-01T05:26:36.700Z,67.99
2018-05-01T05:27:36.860Z,68.28
2018-05-01T05:28:37.022Z,67.52
2018-05-01T05:29:37.186Z,67.33
2018-05-01T05:30:37.349Z,68.47
2018-05-01T05:31:37.505Z,68.95
2018-05-01T05:32:37.663Z,69.23
2018-05-01T05:33:37.829Z,69.04
2018-05-01T05:34:37.982Z,69.33
2018-05-01T05:35:38.150Z,68.47
2018-05-01T05:36:38.306Z,69.33
2018-05-01T05:37:38.465Z,69.43
2018-05-01T05:38:38.632Z,68.38
2018-05-01T05:39:38.865Z,68.28
2018-05-01T05:40:38.966Z,68.85
2018-05-01T05:41:39.135Z,69.33
2018-05-01T05:42:39.305Z,68.95
2018-05-01T05:43:39.467Z,68.85
2018-05-01T05:44:39.662Z,69.71
2018-05-01T05:45:39.799Z,69.23
2018-05-01T05:46:39.965Z,69.14
2018-05-01T05:47:40.132Z,69.23
2018-05-01T05:48:40.294Z,69.04
2018-05-01T05:49:40.451Z,69.43
2018-05-01T05:50:40.615Z,69.04
2018-05-01T05:51:40.772Z,69.33
2018-05-01T05:52:40.939Z,69.62
2018-05-01T05:53:41.110Z,69.90
2018-05-01T05:54:41.265Z,69.81
2018-05-01T05:55:41.433Z,69.33
2018-05-01T05:56:41.594Z,68.22
2018-05-01T05:57:41.751Z,68.22
2018-05-01T05:58:41.917Z,67.07
2018-05-01T05:59:42.075Z,66.02
2018-05-01T06:00:42.235Z,65.93
2018-05-01T06:01:42.405Z,66.78
2018-05-01T06:02:42.571Z,67.07
2018-05-01T06:03:42.733Z,67.74
2018-05-01T06:04:42.903Z,66.78
2018-05-01T06:05:43.065Z,66.31
2018-05-01T06:06:43.244Z,66.50
2018-05-01T06:07:43.460Z,66.12
2018-05-01T06:08:43.582Z,66.88
2018-05-01T06:09:43.755Z,66.78
2018-05-01T06:10:43.931Z,67.27
2018-05-01T06:11:44.087Z,67.55
2018-05-01T06:12:44.255Z,67.17
2018-05-01T06:13:44.502Z,67.55
2018-05-01T06:14:44.595Z,67.46
2018-05-01T06:15:44.751Z,67.36
2018-05-01T06:16:44.909Z,67.07
2018-05-01T06:17:45.072Z,66.78
2018-05-01T06:18:45.233Z,66.50
2018-05-01T06:19:45.398Z,66.31
2018-05-01T06:20:45.567Z,65.36
2018-05-01T06:21:45.802Z,65.45
2018-05-01T06:22:45.898Z,66.12
2018-05-01T06:23:46.063Z,67.07
2018-05-01T06:24:46.223Z,66.98
2018-05-01T06:25:46.392Z,67.55
2018-05-01T06:26:46.555Z,67.46
2018-05-01T06:27:46.716Z,66.88
2018-05-01T06:28:46.880Z,66.22
2018-05-01T06:29:47.046Z,65.48
2018-05-01T06:30:47.205Z,66.02
2018-05-01T06:31:47.424Z,66.12
2018-05-01T06:32:47.588Z,66.02
2018-05-01T06:33:47.748Z,67.17
2018-05-01T06:34:47.916Z,66.88
2018-05-01T06:35:48.086Z,67.55
2018-05-01T06:36:48.300Z,66.88
2018-05-01T06:37:48.407Z,66.22
2018-05-01T06:38:48.563Z,66.35
2018-05-01T06:39:48.748Z,65.93
2018-05-01T06:40:48.910Z,66.06
2018-05-01T06:41:49.074Z,65.39
2018-05-01T06:42:49.237Z,65.01
2018-05-01T06:43:49.397Z,64.62
2018-05-01T06:44:49.572Z,64.28
2018-05-01T06:45:49.734Z,63.60
2018-05-01T06:46:49.902Z,64.28
2018-05-01T06:47:50.076Z,63.70
2018-05-01T06:48:50.240Z,63.99
2018-05-01T06:49:50.406Z,64.25
2018-05-01T06:50:50.573Z,63.60
2018-05-01T06:51:50.725Z,63.51
2018-05-01T06:52:50.883Z,63.60
2018-05-01T06:53:51.051Z,63.60
2018-05-01T06:54:51.218Z,63.42
2018-05-01T06:55:51.372Z,63.03
2018-05-01T06:56:51.543Z,63.13
2018-05-01T06:57:51.711Z,63.13
2018-05-01T06:58:51.871Z,63.51
2018-05-01T06:59:52.032Z,64.25
2018-05-01T07:00:52.201Z,65.33
2018-05-01T07:01:52.356Z,64.18
2018-05-01T07:02:52.534Z,63.60
2018-05-01T07:03:52.692Z,62.65
2018-05-01T07:04:52.877Z,61.98
2018-05-01T07:05:53.050Z,63.32
2018-05-01T07:06:53.203Z,62.55
2018-05-01T07:07:53.449Z,61.89
2018-05-01T07:08:53.548Z,63.60
2018-05-01T07:09:53.724Z,63.60
2018-05-01T07:10:53.889Z,63.80
2018-05-01T07:11:54.058Z,63.86
2018-05-01T07:12:54.228Z,64.25
2018-05-01T07:13:54.388Z,63.96
2018-05-01T07:14:54.552Z,64.05
2018-05-01T07:15:54.796Z,64.62
2018-05-01T07:16:54.887Z,64.05
2018-05-01T07:17:55.057Z,63.76
2018-05-01T07:18:55.217Z,64.15
2018-05-01T07:19:55.384Z,64.05
2018-05-01T07:20:55.551Z,65.20
2018-05-01T07:21:55.723Z,64.53
2018-05-01T07:22:55.895Z,64.53
2018-05-01T07:23:56.071Z,65.26
2018-05-01T07:24:56.236Z,64.69
2018-05-01T07:25:56.409Z,64.50
2018-05-01T07:26:56.573Z,64.88
2018-05-01T07:27:56.742Z,66.12
2018-05-01T07:28:56.901Z,65.74
2018-05-01T07:29:57.066Z,64.88
2018-05-01T07:30:57.229Z,64.31
2018-05-01T07:31:57.390Z,65.07
2018-05-01T07:32:57.571Z,65.83
2018-05-01T07:33:57.733Z,65.83
2018-05-01T07:34:57.891Z,65.07
2018-05-01T07:35:58.055Z,65.36
2018-05-01T07:36:58.220Z,65.64
2018-05-01T07:37:58.393Z,65.74
2018-05-01T07:38:58.555Z,64.50
2018-05-01T07:39:58.722Z,65.10
2018-05-01T07:40:58.883Z,64.50
2018-05-01T07:41:59.045Z,65.36
2018-05-01T07:42:59.205Z,65.74
2018-05-01T07:43:59.382Z,66.50
2018-05-01T07:44:59.565Z,66.22
2018-05-01T07:45:59.731Z,66.31
2018-05-01T07:46:59.894Z,66.78
2018-05-01T07:48:00.058Z,67.30
2018-05-01T07:49:00.252Z,65.58
2018-05-01T07:50:00.385Z,64.81
2018-05-01T07:51:00.549Z,64.15
2018-05-01T07:52:00.713Z,64.05
2018-05-01T07:53:00.884Z,63.48
2018-05-01T07:54:01.055Z,63.39
2018-05-01T07:55:01.222Z,63.03
2018-05-01T07:56:01.399Z,63.57
2018-05-01T07:57:01.547Z,63.10
2018-05-01T07:58:01.713Z,63.20
2018-05-01T07:59:01.878Z,64.72
2018-05-01T08:00:02.036Z,64.62
2018-05-01T08:01:02.202Z,64.62
2018-05-01T08:02:02.360Z,64.53
2018-05-01T08:03:02.525Z,63.32
2018-05-01T08:04:02.691Z,63.23
2018-05-01T08:05:02.872Z,62.27
2018-05-01T08:06:03.041Z,61.22
2018-05-01T08:07:03.287Z,61.44
2018-05-01T08:08:03.378Z,61.41
2018-05-01T08:09:03.543Z,61.69
2018-05-01T08:10:03.709Z,61.13
2018-05-01T08:11:03.875Z,61.98
2018-05-01T08:12:04.121Z,62.18
2018-05-01T08:13:04.220Z,62.81
2018-05-01T08:14:04.387Z,64.25
2018-05-01T08:15:04.555Z,64.15
2018-05-01T08:16:04.738Z,63.00
2018-05-01T08:17:04.908Z,64.15
2018-05-01T08:18:05.085Z,63.67
2018-05-01T08:19:05.249Z,63.80
2018-05-01T08:20:05.414Z,62.71
2018-05-01T08:21:06.348Z,62.18
2018-05-01T08:22:05.757Z,62.55
2018-05-01T08:23:05.925Z,63.13
2018-05-01T08:24:06.090Z,63.42
2018-05-01T08:25:06.257Z,63.10
2018-05-01T08:26:06.419Z,63.10
2018-05-01T08:27:06.585Z,63.48
2018-05-01T08:28:06.750Z,63.96
2018-05-01T08:29:06.917Z,64.34
2018-05-01T08:30:07.080Z,63.67
2018-05-01T08:31:07.261Z,64.34
2018-05-01T08:32:07.428Z,64.05
2018-05-01T08:33:07.594Z,64.43
2018-05-01T08:34:07.759Z,65.30
2018-05-01T08:35:07.922Z,64.62
2018-05-01T08:36:08.082Z,63.96
2018-05-01T08:37:08.262Z,63.57
2018-05-01T08:38:08.408Z,64.05
2018-05-01T08:39:08.588Z,64.72
2018-05-01T08:40:08.748Z,64.91
2018-05-01T08:41:08.918Z,65.58
2018-05-01T08:42:09.088Z,64.81
2018-05-01T08:43:09.263Z,64.62
2018-05-01T08:44:09.427Z,64.43
2018-05-01T08:45:09.586Z,64.18
2018-05-01T08:46:09.764Z,63.80
2018-05-01T08:47:09.937Z,62.08
2018-05-01T08:48:10.093Z,61.44
2018-05-01T08:49:10.244Z,60.49
2018-05-01T08:50:10.439Z,60.17
2018-05-01T08:51:10.598Z,60.55
2018-05-01T08:52:10.770Z,60.74
2018-05-01T08:53:11.017Z,61.69
2018-05-01T08:54:11.083Z,62.27
2018-05-01T08:55:11.250Z,62.46
2018-05-01T08:56:11.414Z,63.13
2018-05-01T08:57:11.586Z,62.08
2018-05-01T08:58:11.757Z,62.75
2018-05-01T08:59:11.915Z,63.32
2018-05-01T09:00:12.097Z,63.23
2018-05-01T09:01:12.267Z,62.37
2018-05-01T09:02:12.433Z,62.46
2018-05-01T09:03:12.602Z,61.32
2018-05-01T09:04:12.835Z,60.55
2018-05-01T09:05:12.935Z,60.07
2018-05-01T09:06:13.111Z,61.29
2018-05-01T09:07:27.928Z,61.79
2018-05-01T09:08:13.465Z,61.22
2018-05-01T09:09:13.622Z,60.55
2018-05-01T09:10:13.794Z,60.64
2018-05-01T09:11:13.958Z,60.74
2018-05-01T09:12:14.130Z,59.41
2018-05-01T09:13:14.293Z,59.69
2018-05-01T09:14:14.457Z,60.74
2018-05-01T09:15:14.627Z,61.79
2018-05-01T09:16:14.791Z,61.41
2018-05-01T09:17:14.957Z,60.84
2018-05-01T09:18:15.239Z,59.91
2018-05-01T09:19:15.295Z,60.10
2018-05-01T09:20:15.456Z,58.80
2018-05-01T09:21:15.615Z,58.06
2018-05-01T09:22:15.780Z,58.06
2018-05-01T09:23:15.944Z,56.01
2018-05-01T09:24:16.119Z,54.93
2018-05-01T09:25:16.286Z,52.07
2018-05-01T09:26:16.563Z,51.23
2018-05-01T09:27:16.873Z,48.83
2018-05-01T09:28:16.980Z,44.22
2018-05-01T09:29:16.968Z,43.57
2018-05-01T09:30:17.133Z,44.17
2018-05-01T09:31:17.299Z,45.21
2018-05-01T09:32:17.565Z,45.37
2018-05-01T09:33:17.664Z,48.59
2018-05-01T09:34:17.830Z,48.71
2018-05-01T09:35:18.017Z,50.81
2018-05-01T09:36:18.191Z,53.20
2018-05-01T09:37:18.359Z,52.92
2018-05-01T09:38:18.536Z,52.89
2018-05-01T09:39:18.703Z,55.07
2018-05-01T09:40:18.880Z,56.15
2018-05-01T09:41:19.035Z,55.00
2018-05-01T09:42:19.213Z,56.02
2018-05-01T09:43:19.395Z,55.96
2018-05-01T09:44:19.563Z,56.31
2018-05-01T09:45:19.740Z,56.12
2018-05-01T09:46:20.062Z,56.88
2018-05-01T09:47:20.093Z,57.26
2018-05-01T09:48:20.259Z,57.32
2018-05-01T09:49:20.434Z,53.58
2018-05-01T09:50:20.734Z,47.56
2018-05-01T09:51:20.756Z,46.50
2018-05-01T09:52:21.135Z,48.11
2018-05-01T09:53:21.092Z,49.05
2018-05-01T09:54:21.373Z,50.36
2018-05-01T09:55:21.577Z,50.81
2018-05-01T09:56:21.546Z,51.10
2018-05-01T09:57:21.722Z,51.87
2018-05-01T09:58:21.883Z,53.69
2018-05-01T09:59:22.071Z,54.23
2018-05-01T10:00:22.231Z,55.02
2018-05-01T10:01:22.405Z,53.20
2018-05-01T10:02:22.576Z,52.00
2018-05-01T10:03:22.912Z,46.94
2018-05-01T10:04:22.902Z,47.49
2018-05-01T10:05:23.071Z,46.79
2018-05-01T10:06:23.242Z,46.96
2018-05-01T10:07:23.406Z,44.79
2018-05-01T10:08:23.577Z,42.22
2018-05-01T10:09:23.783Z,42.49
2018-05-01T10:10:23.913Z,43.50
2018-05-01T10:11:24.088Z,42.91
2018-05-01T10:12:24.280Z,40.16
2018-05-01T10:13:24.501Z,38.54
2018-05-01T10:14:24.645Z,37.65
2018-05-01T10:15:24.818Z,35.69
2018-05-01T10:16:24.993Z,38.20
2018-05-01T10:17:25.173Z,35.92
2018-05-01T10:18:25.341Z,33.86
2018-05-01T10:19:25.517Z,34.92
2018-05-01T10:20:25.714Z,33.07
2018-05-01T10:21:25.868Z,33.18
2018-05-01T10:22:26.045Z,31.54
2018-05-01T10:23:26.227Z,31.10
2018-05-01T10:24:26.776Z,29.24
2018-05-01T10:25:26.692Z,31.52
2018-05-01T10:26:26.719Z,33.09
2018-05-01T10:27:26.894Z,35.55
2018-05-01T10:28:27.083Z,32.12
2018-05-01T10:29:27.255Z,29.94
2018-05-01T10:30:28.374Z,30.18
2018-05-01T10:31:27.625Z,29.73
2018-05-01T10:32:27.818Z,27.91
2018-05-01T10:33:28.009Z,29.12
2018-05-01T10:34:28.181Z,30.79
2018-05-01T10:35:28.357Z,34.61
2018-05-01T10:36:28.534Z,32.67
2018-05-01T10:37:28.713Z,30.90
2018-05-01T10:38:28.941Z,32.14
2018-05-01T10:39:29.079Z,31.43
2018-05-01T10:40:29.257Z,31.09
2018-05-01T10:41:29.438Z,31.46
2018-05-01T10:42:29.608Z,32.84
2018-05-01T10:43:29.800Z,35.94
2018-05-01T10:44:29.983Z,33.48
2018-05-01T10:45:30.151Z,34.19
2018-05-01T10:46:30.325Z,35.24
2018-05-01T10:47:30.500Z,35.11
2018-05-01T10:48:30.676Z,32.23
2018-05-01T10:49:30.893Z,32.28
2018-05-01T10:50:31.035Z,31.74
2018-05-01T10:51:31.216Z,29.99
2018-05-01T10:52:31.392Z,29.82
2018-05-01T10:53:31.584Z,32.23
2018-05-01T10:55:07.458Z,31.52
2018-05-01T10:55:59.937Z,33.59
2018-05-01T10:57:07.975Z,35.31
2018-05-01T10:57:53.249Z,33.68
2018-05-01T10:58:32.403Z,32.09
2018-05-01T10:59:47.453Z,29.70
2018-05-01T11:00:33.428Z,28.80
2018-05-01T11:03:08.955Z,27.03
2018-05-01T11:05:07.523Z,31.07
2018-05-01T11:06:06.868Z,29.56
2018-05-01T11:07:06.689Z,29.27
2018-05-01T11:08:07.823Z,28.74
2018-05-01T11:09:07.044Z,31.45
2018-05-01T11:10:07.418Z,30.03
2018-05-01T11:11:07.624Z,30.05
2018-05-01T11:12:08.427Z,27.31
2018-05-01T11:13:07.916Z,24.71
2018-05-01T11:14:08.188Z,24.02
2018-05-01T11:15:08.382Z,23.91
2018-05-01T11:16:08.402Z,24.32
2018-05-01T11:17:08.774Z,24.88
2018-05-01T11:18:08.910Z,25.07
2018-05-01T11:19:09.020Z,24.51
2018-05-01T11:20:09.286Z,22.12
2018-05-01T11:21:09.356Z,22.24
2018-05-01T11:22:09.639Z,20.79
2018-05-01T11:23:09.782Z,19.60
2018-05-01T11:24:09.906Z,19.96
2018-05-01T11:25:10.082Z,22.38
2018-05-01T11:26:10.350Z,22.56
2018-05-01T11:27:10.377Z,22.34
2018-05-01T11:28:10.744Z,23.92
2018-05-01T11:29:10.881Z,22.69
2018-05-01T11:30:11.043Z,22.71
2018-05-01T11:31:11.107Z,20.99
2018-05-01T11:32:11.160Z,20.49
2018-05-01T11:33:11.515Z,20.37
2018-05-01T11:34:11.510Z,20.99
2018-05-01T11:35:12.431Z,19.73
2018-05-01T11:36:11.889Z,18.98
2018-05-01T11:37:12.182Z,17.92
2018-05-01T11:38:12.991Z,16.19
2018-05-01T11:39:12.476Z,18.01
2018-05-01T11:40:13.465Z,19.86
2018-05-01T11:41:12.849Z,18.87
2018-05-01T11:42:12.902Z,17.89
2018-05-01T11:43:13.266Z,18.68
2018-05-01T11:44:13.489Z,19.98
2018-05-01T11:45:13.569Z,21.88
2018-05-01T11:46:13.617Z,22.30
2018-05-01T11:47:13.927Z,20.55
2018-05-01T11:48:14.057Z,22.20
2018-05-01T11:49:14.248Z,21.81
2018-05-01T11:50:14.306Z,21.03
2018-05-01T11:51:14.743Z,21.12
2018-05-01T11:52:14.801Z,21.12
2018-05-01T11:53:14.863Z,22.02
2018-05-01T11:54:15.200Z,20.49
2018-05-01T11:55:15.476Z,18.75
2018-05-01T11:56:15.765Z,19.44
2018-05-01T11:57:15.817Z,17.71
2018-05-01T11:58:16.073Z,18.94
2018-05-01T11:59:16.285Z,20.34
2018-05-01T12:00:16.399Z,19.88
2018-05-01T12:01:16.548Z,22.43
2018-05-01T12:02:17.485Z,23.12
2018-05-01T12:03:17.154Z,22.75
2018-05-01T12:04:17.334Z,22.74
2018-05-01T12:05:17.576Z,22.38
2018-05-01T12:06:17.594Z,21.80
2018-05-01T12:07:17.788Z,20.84
2018-05-01T12:08:18.003Z,20.42
2018-05-01T12:09:18.179Z,23.57
2018-05-01T12:10:18.352Z,24.56
2018-05-01T12:11:18.544Z,25.40
2018-05-01T12:12:18.716Z,26.03
2018-05-01T12:13:19.849Z,26.65
2018-05-01T12:14:19.151Z,24.76
2018-05-01T12:15:19.452Z,23.59
2018-05-01T12:16:19.638Z,24.91
2018-05-01T12:17:19.636Z,25.34
2018-05-01T12:18:19.819Z,24.99
2018-05-01T12:19:21.020Z,23.76
2018-05-01T12:20:20.194Z,20.39
2018-05-01T12:21:20.380Z,19.53
2018-05-01T12:22:20.564Z,22.00
2018-05-01T12:23:20.920Z,21.89
2018-05-01T12:24:21.072Z,20.92
2018-05-01T12:25:21.111Z,22.63
2018-05-01T12:26:21.302Z,23.76
2018-05-01T12:27:22.908Z,22.75
2018-05-01T12:28:21.711Z,21.33
2018-05-01T12:29:22.140Z,20.37
2018-05-01T12:30:22.021Z,21.54
2018-05-01T12:31:22.471Z,22.50
2018-05-01T12:32:22.442Z,22.39
2018-05-01T12:33:22.613Z,21.79
2018-05-01T12:34:23.064Z,23.69
2018-05-01T12:35:23.151Z,24.82
2018-05-01T12:36:23.210Z,25.19
2018-05-01T12:37:23.507Z,27.49
2018-05-01T12:38:23.760Z,27.08
2018-05-01T12:39:23.761Z,28.14
2018-05-01T12:40:23.950Z,30.42
2018-05-01T12:41:24.138Z,31.77
2018-05-01T12:42:24.596Z,31.08
2018-05-01T12:43:24.473Z,31.00
2018-05-01T12:44:24.675Z,32.06
2018-05-01T12:45:25.056Z,29.73
2018-05-01T12:46:25.005Z,30.87
2018-05-01T12:47:25.271Z,31.26
2018-05-01T12:48:25.468Z,31.45
2018-05-01T12:49:25.601Z,31.35
2018-05-01T12:50:25.912Z,32.43
2018-05-01T12:51:25.924Z,32.03
2018-05-01T12:52:26.104Z,33.56
2018-05-01T12:53:26.279Z,33.16
2018-05-01T12:54:26.665Z,32.47
2018-05-01T12:55:26.628Z,32.18
2018-05-01T12:56:26.950Z,32.49
2018-05-01T12:57:27.135Z,32.49
2018-05-01T12:58:27.366Z,31.51